GCTSGCRR

Guest
Details From GCTS - Tenerife Sur
To GCRR - Lanzarote
Flight Number -
Tags generated
Created
Modified
Stats Distance 169 nm / 313 km
Max Altitude 13,800 ft / 4,206 m
Waypoints 3
Social Downloads 7
Likes 0
Share VATSIM

Download

Looking for another format? Having issues loading an existing format? Contact us
Advertisement - Login to hide

Notes

Basic altitude profile: - Ascent Rate: 2500ft/min - Ascent Speed: 250kts - Cruise Altitude: 35000ft - Cruise Speed: 420kts - Descent Rate: 1500ft/min - Descent Speed: 250kts Options: - Use NATs: yes - Use PACOTS: yes - Use low airways: yes - Use high airways: yes

Route

GCTS LARYS GCRR

ID Type Via Altitude Latitude Longitude Leg Dist Tot Dist Heading (true) Name
O GCTS APT - 0 ft / 0 m 28.04448˚ -16.57249˚ - 0 nm - Tenerife Sur
LARYS FIX - 13,800 ft / 4,206 m 28.87183˚ -14.83429˚ 104 nm 104 nm 61° / 62° -
O GCRR APT - 0 ft / 0 m 28.94547˚ -13.60522˚ 64 nm 169 nm 86° / 86° Lanzarote

Altitude Profile

Advertisement - Login to hide

Weather


0- 5 10 15 20 25 30 35+ Temperature / ° C

Clouds and Precipitation
Forecast for 2017-12-17 18:00 UTC. Updated an hour ago

Ground ~20,000 ft ~40,000 ft Winds

GCTS

Details ICAO GCTS (TFS)
Name Tenerife Sur
Region Canary Islands
Timezone Atlantic/Canary (UTC+0.0)
Stats Elevation 209 ft / 64 m (AMSL)
Location 28.044475° -16.572488°
Runways 1
Magnetic Variation 5.116° W

METAR

GCTS 171400Z 08027KT 9999 FEW050 21/11 Q1022 NOSIG

Decode

TAF

TAF GCTS 170800Z 1709/1809 04018KT 9999 FEW030 BKN040 TX22/1714Z TN16/1806Z PROB40 TEMPO 1709/1720 04020G32KT

Decode

Departure Runways

ID Width Length Bearing (true) Bearing (mag) Surface Threshold Offset Overrun Length
08 148 ft / 45 m 10,489 ft / 3,197 m 68.47° 73.59° Asphalt 0 ft / 0 m 0 ft / 0 m
26 148 ft / 45 m 10,489 ft / 3,197 m 248.49° 253.61° Asphalt 0 ft / 0 m 0 ft / 0 m

GCRR

Details ICAO GCRR (ACE)
Name Lanzarote
Region Canary Islands
Timezone Atlantic/Canary (UTC+0.0)
Stats Elevation 0 ft / 0 m (AMSL)
Location 28.945466° -13.605223°
Runways 1
Magnetic Variation 3.975° W

METAR

GCRR 171400Z 01018KT 340V060 9999 BKN045 20/08 Q1021

Decode

TAF

TAF GCRR 170800Z 1709/1809 02016KT 9999 BKN040 TX21/1714Z TN13/1806Z PROB30 TEMPO 1709/1712 RA

Decode

Destination Runways

ID Width Length Bearing (true) Bearing (mag) Surface Threshold Offset Overrun Length
03 148 ft / 45 m 7,893 ft / 2,406 m 26.90° 30.88° Asphalt 197 ft / 60 m 197 ft / 60 m
21 148 ft / 45 m 7,893 ft / 2,406 m 206.91° 210.89° Asphalt 197 ft / 60 m 197 ft / 60 m

Approach Navaids

Runway Type Ident Frequency Range Bearing (true) Bearing (mag) Slope Elevation
03 Localiser IRR 109.10 MHz 18 nm / 33 km 26.90° 30.88° - 47 ft / 14 m (AMSL)
03 Glidescope IRR 109.10 MHz 10 nm / 19 km 26.90° 30.88° 3.00° 0 ft / 0 m (AMSL)
03 DME IRR 109.10 MHz 18 nm / 33 km - - - 36 ft / 11 m (AMSL)

Popular Alternatives